.
WxDataArchive / Data Records for 2009-02-07
2009-02-06 February 2009 2009-02-08

Data Records for Saturday, 07 February 2009

Time	Temp	Chill	HIndex	Humid	Dewpt	 Wind 	HiWind	WindDir	Rain 	Barom 
-----	----	-----	------	-----	-----	------	------	-------	-----	----- 
00:00	36.3	36.3	36.3	79	30.4	0	1	135	0.00	30.067 
00:05	36.6	36.6	36.6	79	30.7	0	3	90	0.00	30.066 
00:10	36.9	36.9	36.9	78	30.7	0	1	90	0.00	30.066 
00:15	37.0	37.0	37.0	79	31.1	0	1	90	0.00	30.066 
00:20	37.2	37.2	37.2	79	31.3	0	1	90	0.00	30.065 
00:25	37.5	37.5	37.5	80	31.9	0	1	90	0.00	30.064 
00:30	37.6	37.6	37.6	80	32.0	0	1	90	0.00	30.056 
00:35	37.9	37.9	37.9	80	32.3	0	1	90	0.00	30.054 
00:40	38.2	38.2	38.2	81	32.9	0	2	68	0.00	30.056 
00:45	38.5	38.5	38.5	81	33.2	0	3	68	0.00	30.056 
00:50	38.9	38.9	38.9	82	33.9	0	1	68	0.00	30.056 
00:55	39.3	39.3	39.3	83	34.6	0	2	270	0.00	30.056 
01:00	39.8	39.8	39.8	83	35.1	0	3	225	0.00	30.055 
01:05	40.2	40.2	40.2	83	35.5	1	3	248	0.00	30.054 
01:10	40.9	40.9	40.9	84	36.4	1	4	248	0.00	30.054 
01:15	41.3	41.3	41.3	83	36.5	1	4	248	0.00	30.054 
01:20	41.6	41.6	41.6	84	37.1	1	4	248	0.00	30.053 
01:25	42.1	42.1	42.1	84	37.6	1	3	248	0.00	30.049 
01:30	42.3	42.3	42.3	84	37.8	1	3	248	0.00	30.045 
01:35	42.5	42.5	42.5	84	38.0	1	4	270	0.00	30.042 
01:40	42.9	42.9	42.9	84	38.4	1	7	315	0.00	30.041 
01:45	42.9	42.9	42.9	84	38.4	1	5	315	0.00	30.038 
01:50	43.1	43.1	43.1	84	38.6	1	3	248	0.00	30.036 
01:55	43.3	43.3	43.3	84	38.8	1	6	248	0.00	30.035 
02:00	43.5	43.5	43.5	84	39.0	1	7	248	0.00	30.033 
02:05	43.8	43.8	43.8	84	39.3	2	9	248	0.00	30.032 
02:10	43.9	43.9	43.9	84	39.4	2	5	248	0.00	30.031 
02:15	43.9	43.9	43.9	84	39.4	1	5	248	0.00	30.031 
02:20	43.9	43.9	43.9	84	39.4	1	4	248	0.00	30.029 
02:25	44.1	44.1	44.1	84	39.6	2	4	248	0.00	30.026 
02:30	44.1	44.1	44.1	84	39.6	1	5	270	0.00	30.026 
02:35	44.1	44.1	44.1	84	39.6	2	7	248	0.00	30.026 
02:40	44.1	44.1	44.1	84	39.6	2	5	248	0.00	30.026 
02:45	44.1	44.1	44.1	84	39.6	2	7	248	0.00	30.025 
02:50	44.1	44.1	44.1	84	39.6	2	6	248	0.00	30.024 
02:55	44.1	44.1	44.1	84	39.6	2	6	248	0.00	30.022 
03:00	43.9	43.9	43.9	84	39.4	1	7	248	0.00	30.020 
03:05	43.8	43.8	43.8	85	39.6	2	5	270	0.00	30.013 
03:10	43.8	43.8	43.8	85	39.6	2	6	248	0.00	30.007 
03:15	43.9	43.9	43.9	85	39.7	2	7	248	0.00	30.008 
03:20	43.9	43.9	43.9	85	39.7	1	5	270	0.00	30.007 
03:25	44.1	44.1	44.1	85	39.9	2	5	248	0.00	30.003 
03:30	44.1	44.1	44.1	85	39.9	3	10	225	0.00	30.005 
03:35	44.3	44.3	44.3	85	40.1	2	9	248	0.00	30.001 
03:40	44.5	44.5	44.5	85	40.3	2	7	248	0.00	30.001 
03:45	44.6	44.6	44.6	84	40.1	3	12	248	0.00	29.995 
03:50	44.8	44.8	44.8	84	40.3	2	7	248	0.00	30.000 
03:55	44.9	44.9	44.9	84	40.4	3	10	248	0.00	29.999 
04:00	45.1	43.2	45.1	84	40.6	4	14	248	0.00	29.991 
04:05	45.2	45.2	45.2	83	40.3	3	7	248	0.00	29.993 
04:10	45.2	43.3	45.2	83	40.3	4	15	270	0.00	29.992 
04:15	45.4	43.6	45.4	83	40.5	4	7	248	0.00	29.987 
04:20	45.4	43.6	45.4	82	40.2	4	9	248	0.00	29.986 
04:25	45.4	43.6	45.4	82	40.2	4	9	248	0.00	29.982 
04:30	45.7	43.2	45.7	82	40.5	5	14	270	0.00	29.977 
04:35	45.8	43.3	45.8	81	40.3	5	11	248	0.00	29.976 
04:40	45.8	44.0	45.8	81	40.3	4	13	248	0.00	29.975 
04:45	46.0	44.2	46.0	81	40.5	4	9	270	0.00	29.979 
04:50	46.0	44.2	46.0	81	40.5	4	11	248	0.00	29.978 
04:55	46.0	43.5	46.0	80	40.2	5	12	248	0.00	29.979 
05:00	46.0	44.2	46.0	80	40.2	4	10	248	0.00	29.977 
05:05	45.8	45.8	45.8	80	40.0	3	9	248	0.00	29.976 
05:10	45.8	44.0	45.8	80	40.0	4	9	270	0.00	29.977 
05:15	45.7	45.7	45.7	80	39.9	3	7	270	0.00	29.976 
05:20	45.5	45.5	45.5	80	39.7	3	9	248	0.00	29.975 
05:25	45.5	45.5	45.5	80	39.7	3	9	248	0.00	29.974 
05:30	45.4	45.4	45.4	80	39.6	3	9	248	0.00	29.975 
05:35	45.2	45.2	45.2	80	39.4	2	6	248	0.00	29.974 
05:40	45.2	45.2	45.2	80	39.4	3	12	248	0.00	29.974 
05:45	45.2	45.2	45.2	80	39.4	3	12	248	0.00	29.974 
05:50	45.1	45.1	45.1	80	39.3	2	5	248	0.00	29.974 
05:55	45.1	45.1	45.1	80	39.3	2	7	248	0.00	29.973 
06:00	45.1	45.1	45.1	80	39.3	3	5	248	0.00	29.970 
06:05	45.1	45.1	45.1	80	39.3	3	6	248	0.00	29.971 
06:10	44.9	44.9	44.9	79	38.8	2	6	292	0.00	29.969 
06:15	45.1	45.1	45.1	80	39.3	3	9	248	0.00	29.970 
06:20	45.2	45.2	45.2	80	39.4	3	7	248	0.00	29.968 
06:25	45.2	45.2	45.2	79	39.1	3	7	270	0.00	29.965 
06:30	45.2	45.2	45.2	79	39.1	3	11	270	0.00	29.965 
06:35	45.2	45.2	45.2	79	39.1	3	10	270	0.00	29.965 
06:40	45.2	45.2	45.2	79	39.1	3	9	248	0.00	29.965 
06:45	45.2	45.2	45.2	79	39.1	3	7	248	0.00	29.964 
06:50	45.2	45.2	45.2	79	39.1	3	10	248	0.00	29.962 
06:55	45.4	43.6	45.4	79	39.3	4	12	248	0.00	29.961 
07:00	45.4	43.6	45.4	79	39.3	4	10	270	0.00	29.960 
07:05	45.4	45.4	45.4	79	39.3	3	6	248	0.00	29.964 
07:10	45.4	45.4	45.4	79	39.3	3	7	270	0.00	29.963 
07:15	45.7	43.9	45.7	79	39.6	4	13	248	0.00	29.964 
07:20	45.8	44.0	45.8	79	39.7	4	9	248	0.00	29.964 
07:25	45.8	45.8	45.8	78	39.3	3	9	248	0.00	29.964 
07:30	45.5	43.7	45.5	79	39.4	4	9	248	0.00	29.963 
07:35	45.4	45.4	45.4	79	39.3	3	7	270	0.00	29.965 
07:40	45.4	45.4	45.4	79	39.3	3	9	248	0.00	29.966 
07:45	45.2	45.2	45.2	79	39.1	3	6	248	0.00	29.966 
07:50	45.1	43.2	45.1	80	39.3	4	11	248	0.00	29.967 
07:55	45.4	43.6	45.4	80	39.6	4	10	248	0.00	29.967 
08:00	45.5	43.7	45.5	80	39.7	4	13	248	0.00	29.967 
08:05	45.7	45.7	45.7	79	39.6	3	10	248	0.00	29.968 
08:10	45.7	43.9	45.7	79	39.6	4	9	248	0.00	29.965 
08:15	45.8	43.3	45.8	79	39.7	5	12	248	0.00	29.968 
08:20	46.1	43.6	46.1	79	40.0	5	10	248	0.00	29.965 
08:25	46.4	44.0	46.4	78	39.9	5	12	248	0.00	29.967 
08:30	46.5	44.1	46.5	78	40.0	5	10	270	0.00	29.967 
08:35	46.7	43.2	46.7	78	40.2	7	13	248	0.00	29.966 
08:40	46.7	44.3	46.7	78	40.2	5	13	248	0.00	29.967 
08:45	46.7	43.7	46.7	78	40.2	6	13	248	0.00	29.967 
08:50	46.7	45.1	46.7	77	39.9	4	10	270	0.00	29.965 
08:55	46.7	44.3	46.7	77	39.9	5	12	270	0.00	29.964 
09:00	46.8	44.5	46.8	77	40.0	5	14	248	0.00	29.965 
09:05	47.0	44.7	47.0	77	40.2	5	10	248	0.00	29.962 
09:10	47.0	44.7	47.0	77	40.2	5	11	248	0.00	29.965 
09:15	47.1	45.5	47.1	77	40.3	4	14	248	0.00	29.962 
09:20	47.1	44.8	47.1	77	40.3	5	11	248	0.00	29.962 
09:25	47.3	45.8	47.3	77	40.5	4	9	248	0.00	29.963 
09:30	47.4	44.6	47.4	77	40.6	6	15	270	0.00	29.962 
09:35	47.6	44.8	47.6	76	40.4	6	14	248	0.00	29.959 
09:40	47.7	44.9	47.7	76	40.5	6	14	248	0.00	29.960 
09:45	47.9	45.2	47.9	76	40.7	6	17	270	0.00	29.960 
09:50	48.0	45.3	48.0	76	40.8	6	17	270	0.00	29.960 
09:55	48.2	45.5	48.2	76	41.0	6	13	248	0.00	29.962 
10:00	48.5	45.9	48.5	75	40.9	6	16	270	0.00	29.960 
10:05	48.6	46.0	48.6	75	41.0	6	13	248	0.00	29.960 
10:10	48.8	46.2	48.8	75	41.2	6	16	248	0.00	29.961 
10:15	48.9	46.4	48.9	75	41.3	6	16	248	0.00	29.961 
10:20	49.1	46.6	49.1	75	41.5	6	14	270	0.00	29.961 
10:25	48.9	46.4	48.9	74	41.0	6	14	270	0.00	29.959 
10:30	49.1	46.1	49.1	75	41.5	7	15	248	0.00	29.959 
10:35	49.2	46.7	49.2	74	41.3	6	17	270	0.00	29.960 
10:40	49.4	47.5	49.4	75	41.8	5	12	270	0.00	29.964 
10:45	49.5	47.1	49.5	75	41.9	6	15	248	0.00	29.968 
10:50	49.6	46.7	49.6	75	42.0	7	17	270	0.00	29.964 
10:55	49.8	46.9	49.8	74	41.9	7	15	270	0.01	29.970 
11:00	49.9	47.5	49.9	74	41.9	6	14	248	0.00	29.969 
11:05	50.2	50.2	50.2	74	42.2	5	13	248	0.00	29.966 
11:10	50.4	50.4	50.4	74	42.4	5	12	270	0.00	29.969 
11:15	50.4	50.4	50.4	74	42.4	7	15	248	0.00	29.969 
11:20	50.5	50.5	50.5	74	42.5	6	14	248	0.00	29.970 
11:25	50.8	50.8	50.8	74	42.8	6	15	270	0.00	29.972 
11:30	51.0	51.0	51.0	73	42.7	6	13	270	0.00	29.971 
11:35	51.1	51.1	51.1	74	43.1	7	16	270	0.00	29.973 
11:40	51.1	51.1	51.1	74	43.1	7	16	270	0.00	29.970 
11:45	51.3	51.3	51.3	74	43.3	6	13	270	0.00	29.969 
11:50	51.4	51.4	51.4	74	43.4	7	15	248	0.00	29.969 
11:55	51.6	51.6	51.6	73	43.2	7	21	270	0.00	29.967 
12:00	51.6	51.6	51.6	74	43.6	7	14	270	0.00	29.968 
12:05	51.6	51.6	51.6	74	43.6	7	18	248	0.00	29.964 
12:10	51.6	51.6	51.6	74	43.6	6	15	248	0.00	29.962 
12:15	51.6	51.6	51.6	74	43.6	8	16	248	0.00	29.961 
12:20	51.4	51.4	51.4	74	43.4	6	16	248	0.00	29.960 
12:25	51.3	51.3	51.3	75	43.6	7	16	248	0.00	29.965 
12:30	51.1	51.1	51.1	76	43.8	9	19	248	0.00	29.966 
12:35	51.1	51.1	51.1	76	43.8	8	18	270	0.00	29.965 
12:40	51.0	51.0	51.0	77	44.0	7	14	248	0.00	29.962 
12:45	51.0	51.0	51.0	77	44.0	7	17	248	0.00	29.963 
12:50	51.0	51.0	51.0	77	44.0	5	13	270	0.00	29.965 
12:55	51.1	51.1	51.1	77	44.1	7	14	270	0.00	29.964 
13:00	51.3	51.3	51.3	77	44.3	7	16	248	0.00	29.964 
13:05	51.3	51.3	51.3	77	44.3	7	15	248	0.00	29.957 
13:10	51.3	51.3	51.3	77	44.3	6	12	248	0.00	29.955 
13:15	51.3	51.3	51.3	77	44.3	6	16	270	0.00	29.953 
13:20	51.3	51.3	51.3	77	44.3	6	12	270	0.00	29.952 
13:25	51.3	51.3	51.3	77	44.3	7	14	270	0.00	29.950 
13:30	51.3	51.3	51.3	77	44.3	6	13	270	0.00	29.950 
13:35	51.3	51.3	51.3	78	44.7	5	14	270	0.00	29.950 
13:40	51.1	51.1	51.1	78	44.5	5	12	248	0.00	29.953 
13:45	51.1	51.1	51.1	78	44.5	6	12	270	0.00	29.953 
13:50	51.1	51.1	51.1	78	44.5	5	10	248	0.00	29.951 
13:55	51.1	51.1	51.1	79	44.8	5	12	248	0.00	29.948 
14:00	51.1	51.1	51.1	79	44.8	7	16	270	0.00	29.948 
14:05	51.1	51.1	51.1	79	44.8	6	13	248	0.00	29.948 
14:10	51.1	51.1	51.1	80	45.1	6	16	270	0.00	29.949 
14:15	51.3	51.3	51.3	79	45.0	6	17	248	0.00	29.948 
14:20	51.3	51.3	51.3	80	45.3	6	16	248	0.00	29.947 
14:25	51.3	51.3	51.3	80	45.3	6	17	270	0.00	29.949 
14:30	51.4	51.4	51.4	80	45.4	6	14	270	0.00	29.951 
14:35	51.6	51.6	51.6	80	45.6	5	12	270	0.00	29.949 
14:40	51.6	51.6	51.6	80	45.6	5	11	248	0.00	29.951 
14:45	51.7	51.7	51.7	80	45.7	5	17	248	0.00	29.950 
14:50	51.9	51.9	51.9	80	45.9	5	10	270	0.00	29.953 
14:55	51.9	51.9	51.9	80	45.9	5	10	248	0.00	29.955 
15:00	51.7	51.7	51.7	80	45.7	6	13	248	0.00	29.959 
15:05	51.7	51.7	51.7	80	45.7	6	15	248	0.00	29.961 
15:10	51.6	51.6	51.6	81	46.0	6	13	248	0.00	29.961 
15:15	51.6	51.6	51.6	81	46.0	5	13	270	0.00	29.961 
15:20	51.6	51.6	51.6	81	46.0	5	12	248	0.00	29.961 
15:25	51.7	51.7	51.7	81	46.1	5	12	248	0.00	29.961 
15:30	51.7	51.7	51.7	81	46.1	5	11	270	0.00	29.965 
15:35	51.7	51.7	51.7	81	46.1	5	15	248	0.00	29.969 
15:40	51.7	51.7	51.7	81	46.1	5	11	248	0.00	29.971 
15:45	51.7	51.7	51.7	81	46.1	4	8	248	0.00	29.972 
15:50	51.7	51.7	51.7	81	46.1	4	11	248	0.00	29.974 
15:55	51.7	51.7	51.7	81	46.1	4	12	248	0.00	29.974 
16:00	51.7	51.7	51.7	82	46.4	4	11	248	0.00	29.975 
16:05	51.7	51.7	51.7	82	46.4	4	14	248	0.00	29.975 
16:10	51.7	51.7	51.7	82	46.4	5	13	248	0.00	29.975 
16:15	51.9	51.9	51.9	82	46.6	5	12	270	0.00	29.975 
16:20	51.9	51.9	51.9	82	46.6	5	11	270	0.00	29.975 
16:25	51.9	51.9	51.9	82	46.6	5	12	248	0.00	29.975 
16:30	51.7	51.7	51.7	82	46.4	5	12	248	0.00	29.971 
16:35	51.7	51.7	51.7	82	46.4	4	11	248	0.00	29.973 
16:40	51.9	51.9	51.9	82	46.6	4	13	248	0.00	29.974 
16:45	51.9	51.9	51.9	82	46.6	4	12	248	0.00	29.975 
16:50	51.7	51.7	51.7	82	46.4	4	14	248	0.00	29.975 
16:55	51.7	51.7	51.7	82	46.4	5	13	248	0.00	29.974 
17:00	51.6	51.6	51.6	82	46.3	4	9	248	0.00	29.975 
17:05	51.6	51.6	51.6	82	46.3	5	13	270	0.00	29.978 
17:10	51.4	51.4	51.4	83	46.4	5	10	248	0.00	29.981 
17:15	51.3	51.3	51.3	83	46.3	5	11	248	0.00	29.983 
17:20	51.1	51.1	51.1	84	46.4	4	9	248	0.00	29.984 
17:25	51.0	51.0	51.0	84	46.3	4	12	270	0.00	29.986 
17:30	51.0	51.0	51.0	84	46.3	4	13	248	0.00	29.985 
17:35	50.8	50.8	50.8	84	46.1	3	7	248	0.00	29.987 
17:40	50.7	50.7	50.7	85	46.4	3	10	248	0.00	29.986 
17:45	50.5	50.5	50.5	85	46.2	3	7	248	0.00	29.989 
17:50	50.5	50.5	50.5	85	46.2	4	11	248	0.00	29.992 
17:55	50.4	50.4	50.4	86	46.4	4	10	248	0.00	29.996 
18:00	50.2	50.2	50.2	86	46.2	4	10	248	0.00	29.998 
18:05	50.2	50.2	50.2	86	46.2	4	10	248	0.00	29.998 
18:10	50.1	50.1	50.1	87	46.4	4	12	248	0.00	30.000 
18:15	49.9	48.8	49.9	87	46.2	4	9	248	0.00	30.004 
18:20	49.9	49.9	49.9	87	46.2	3	9	248	0.00	30.004 
18:25	49.8	48.6	49.8	87	46.1	4	10	248	0.00	30.004 
18:30	49.8	48.6	49.8	87	46.1	4	9	248	0.00	30.006 
18:35	49.6	47.7	49.6	88	46.2	5	13	248	0.00	30.006 
18:40	49.6	48.4	49.6	88	46.2	4	9	248	0.00	30.008 
18:45	49.5	48.3	49.5	88	46.1	4	16	248	0.00	30.010 
18:50	49.4	48.2	49.4	88	46.0	4	12	248	0.00	30.012 
18:55	49.4	48.2	49.4	88	46.0	4	9	248	0.00	30.014 
19:00	49.4	48.2	49.4	88	46.0	4	10	248	0.00	30.015 
19:05	49.4	49.4	49.4	88	46.0	3	9	248	0.00	30.018 
19:10	49.4	47.5	49.4	89	46.3	5	12	248	0.00	30.024 
19:15	49.4	48.2	49.4	88	46.0	4	10	248	0.00	30.024 
19:20	49.4	47.5	49.4	89	46.3	5	12	248	0.00	30.024 
19:25	49.4	48.2	49.4	89	46.3	4	9	248	0.00	30.023 
19:30	49.4	48.2	49.4	89	46.3	4	7	248	0.00	30.026 
19:35	49.4	47.5	49.4	89	46.3	5	11	248	0.00	30.027 
19:40	49.5	47.6	49.5	89	46.4	5	12	248	0.00	30.027 
19:45	49.5	47.6	49.5	89	46.4	5	11	248	0.00	30.028 
19:50	49.4	49.4	49.4	89	46.3	3	10	248	0.00	30.027 
19:55	49.4	48.2	49.4	89	46.3	4	12	248	0.00	30.028 
20:00	49.5	47.6	49.5	89	46.4	5	11	270	0.00	30.028 
20:05	49.5	47.6	49.5	89	46.4	5	12	248	0.00	30.031 
20:10	49.6	48.4	49.6	89	46.5	4	11	248	0.00	30.030 
20:15	49.6	47.7	49.6	89	46.5	5	10	248	0.00	30.036 
20:20	49.6	47.7	49.6	89	46.5	5	14	248	0.00	30.037 
20:25	49.6	48.4	49.6	89	46.5	4	11	270	0.00	30.039 
20:30	49.8	48.0	49.8	89	46.7	5	14	248	0.00	30.040 
20:35	49.6	47.7	49.6	89	46.5	5	12	270	0.00	30.041 
20:40	49.6	48.4	49.6	89	46.5	4	12	248	0.00	30.040 
20:45	49.6	47.7	49.6	89	46.5	5	12	248	0.00	30.042 
20:50	49.6	47.7	49.6	89	46.5	5	11	248	0.00	30.044 
20:55	49.6	48.4	49.6	89	46.5	4	14	248	0.00	30.045 
21:00	49.6	47.7	49.6	89	46.5	5	13	270	0.00	30.049 
21:05	49.6	48.4	49.6	89	46.5	4	11	248	0.00	30.048 
21:10	49.6	47.7	49.6	90	46.8	5	11	248	0.00	30.046 
21:15	49.6	48.4	49.6	89	46.5	4	9	248	0.00	30.051 
21:20	49.8	48.0	49.8	89	46.7	5	9	248	0.00	30.049 
21:25	49.6	48.4	49.6	89	46.5	4	10	248	0.00	30.051 
21:30	49.6	48.4	49.6	89	46.5	4	10	248	0.00	30.052 
21:35	49.6	47.7	49.6	90	46.8	5	12	248	0.00	30.053 
21:40	49.6	48.4	49.6	90	46.8	4	10	248	0.00	30.054 
21:45	49.6	47.7	49.6	90	46.8	5	14	270	0.00	30.053 
21:50	49.5	47.6	49.5	90	46.7	5	10	248	0.00	30.052 
21:55	49.5	47.6	49.5	90	46.7	5	14	248	0.00	30.053 
22:00	49.4	48.2	49.4	90	46.6	4	10	248	0.00	30.053 
22:05	49.2	47.9	49.2	90	46.4	4	10	248	0.00	30.053 
22:10	49.2	47.9	49.2	90	46.4	4	10	248	0.00	30.053 
22:15	49.2	47.9	49.2	90	46.4	4	13	248	0.00	30.054 
22:20	49.2	47.9	49.2	90	46.4	4	11	248	0.00	30.054 
22:25	49.1	47.8	49.1	90	46.3	4	10	248	0.00	30.054 
22:30	49.2	47.9	49.2	91	46.7	4	9	248	0.00	30.054 
22:35	49.2	47.3	49.2	91	46.7	5	12	248	0.00	30.055 
22:40	49.5	47.6	49.5	91	47.0	5	14	248	0.00	30.054 
22:45	49.5	49.5	49.5	91	47.0	3	8	248	0.00	30.053 
22:50	49.5	49.5	49.5	91	47.0	3	9	248	0.00	30.053 
22:55	49.5	49.5	49.5	91	47.0	3	9	248	0.00	30.056 
23:00	49.6	49.6	49.6	91	47.1	3	9	248	0.00	30.060 
23:05	49.8	48.6	49.8	91	47.3	4	12	248	0.00	30.058 
23:10	50.1	50.1	50.1	91	47.6	3	7	248	0.00	30.060 
23:15	50.2	50.2	50.2	91	47.7	4	10	248	0.00	30.059 
23:20	50.5	50.5	50.5	91	48.0	4	9	248	0.00	30.061 
23:25	50.7	50.7	50.7	90	47.9	3	9	248	0.00	30.063 
23:30	51.0	51.0	51.0	90	48.2	4	11	270	0.00	30.065 
23:35	51.0	51.0	51.0	90	48.2	4	10	270	0.00	30.066 
23:40	51.1	51.1	51.1	89	48.0	5	11	270	0.00	30.066 
23:45	51.1	51.1	51.1	89	48.0	4	10	270	0.00	30.068 
23:50	51.1	51.1	51.1	89	48.0	5	16	270	0.00	30.069 
23:55	51.0	51.0	51.0	89	47.9	4	12	270	0.00	30.074 

CoCoRaHS
IN-AL-39
A2 Web Hosting
Creative Commons License
GoDaddy
search engine by freefind advanced

loaded 2018-11-19 11:08:22 • last modified 2010-11-18 10:43:29
Privacy PolicyDisclaimer
• wx.awcolley.com is powered by PmWiki v.2002016 •
• all content (unless otherwise noted) © 2018 A W Colley